DIMEL EDDH-EDDH
Flight info
| Callsign | DIMEL |
|---|---|
| Flight time | 1h 5m |
| Altitude | |
| Route | EDDH/23 |
| Aircraft | BE9L |
Departure
| Time | 2026-04-24 15:57 |
|---|---|
| Airport | Hamburg Helmut Schmidt Airport (EDDH) |
Arrival
| Time | 2026-04-24 17:03 |
|---|---|
| Airport | Hamburg Helmut Schmidt Airport (EDDH) |
| Time | Latitude | Longitude | Altitude | Speed | Heading |
|---|---|---|---|---|---|
| 2026-04-24 15:47 | 53.62631 | 9.98895 | 42 ft | 0 kts | 242° |
| 2026-04-24 15:54 | 53.62631 | 9.98894 | 42 ft | 0 kts | 245° |
| 2026-04-24 15:54 | 53.62638 | 9.98886 | 42 ft | 5 kts | 38° |
| 2026-04-24 15:55 | 53.62696 | 9.98883 | 42 ft | 17 kts | 329° |
| 2026-04-24 15:55 | 53.62786 | 9.98800 | 42 ft | 12 kts | 335° |
| 2026-04-24 15:55 | 53.62849 | 9.98873 | 42 ft | 16 kts | 51° |
| 2026-04-24 15:55 | 53.62944 | 9.99060 | 42 ft | 26 kts | 52° |
| 2026-04-24 15:56 | 53.63049 | 9.99243 | 42 ft | 15 kts | 1° |
| 2026-04-24 15:56 | 53.63094 | 9.99136 | 42 ft | 14 kts | 272° |
| 2026-04-24 15:56 | 53.63081 | 9.98921 | 42 ft | 22 kts | 251° |
| 2026-04-24 15:56 | 53.62978 | 9.98698 | 41 ft | 45 kts | 230° |
| 2026-04-24 15:57 | 53.62655 | 9.98014 | 41 ft | 101 kts | 228° |
| 2026-04-24 15:57 | 53.62123 | 9.96986 | 246 ft | 129 kts | 237° |
| 2026-04-24 15:57 | 53.61523 | 9.95714 | 570 ft | 141 kts | 238° |
| 2026-04-24 15:57 | 53.60864 | 9.94554 | 932 ft | 140 kts | 216° |
| 2026-04-24 15:58 | 53.59851 | 9.94306 | 1219 ft | 166 kts | 172° |
| 2026-04-24 15:58 | 53.58897 | 9.95523 | 1169 ft | 183 kts | 114° |
| 2026-04-24 15:58 | 53.58838 | 9.97611 | 1159 ft | 179 kts | 69° |
| 2026-04-24 15:58 | 53.59356 | 9.99454 | 1102 ft | 174 kts | 54° |
| 2026-04-24 15:59 | 53.59979 | 10.01166 | 1095 ft | 169 kts | 49° |
| 2026-04-24 15:59 | 53.60661 | 10.02772 | 1068 ft | 169 kts | 49° |
| 2026-04-24 15:59 | 53.61314 | 10.04405 | 1082 ft | 167 kts | 49° |
| 2026-04-24 15:59 | 53.61959 | 10.06009 | 1078 ft | 163 kts | 45° |
| 2026-04-24 16:00 | 53.62814 | 10.07042 | 950 ft | 146 kts | 4° |
| 2026-04-24 16:00 | 53.63773 | 10.06966 | 832 ft | 134 kts | 330° |
| 2026-04-24 16:00 | 53.64335 | 10.05893 | 833 ft | 120 kts | 291° |
| 2026-04-24 16:00 | 53.64601 | 10.04585 | 786 ft | 116 kts | 287° |
| 2026-04-24 16:01 | 53.64717 | 10.03262 | 678 ft | 115 kts | 268° |
| 2026-04-24 16:01 | 53.64486 | 10.01968 | 483 ft | 115 kts | 252° |
| 2026-04-24 16:01 | 53.64033 | 10.00857 | 247 ft | 116 kts | 239° |
| 2026-04-24 16:01 | 53.63532 | 9.99840 | 77 ft | 110 kts | 239° |
| 2026-04-24 16:02 | 53.63073 | 9.98894 | 42 ft | 97 kts | 232° |
| 2026-04-24 16:02 | 53.62624 | 9.97984 | 38 ft | 118 kts | 232° |
| 2026-04-24 16:02 | 53.62020 | 9.96785 | 264 ft | 147 kts | 236° |
| 2026-04-24 16:02 | 53.61305 | 9.95469 | 716 ft | 159 kts | 221° |
| 2026-04-24 16:03 | 53.60156 | 9.95125 | 1149 ft | 188 kts | 171° |
| 2026-04-24 16:03 | 53.59068 | 9.96480 | 1279 ft | 209 kts | 120° |
| 2026-04-24 16:03 | 53.58990 | 9.98855 | 1271 ft | 211 kts | 57° |
| 2026-04-24 16:03 | 53.60068 | 10.00170 | 1403 ft | 186 kts | 1° |
| 2026-04-24 16:04 | 53.61337 | 10.00120 | 1401 ft | 183 kts | 353° |
| 2026-04-24 16:04 | 53.62618 | 10.00104 | 1410 ft | 185 kts | 355° |
| 2026-04-24 16:04 | 53.63918 | 10.00140 | 1394 ft | 187 kts | 356° |
| 2026-04-24 16:04 | 53.65216 | 10.00215 | 1386 ft | 188 kts | 358° |
| 2026-04-24 16:05 | 53.67830 | 10.00505 | 1404 ft | 189 kts | 358° |
| 2026-04-24 16:05 | 53.69166 | 10.00703 | 1362 ft | 193 kts | 3° |
| 2026-04-24 16:06 | 53.71771 | 10.01727 | 1357 ft | 192 kts | 9° |
| 2026-04-24 16:06 | 53.73065 | 10.02281 | 1363 ft | 193 kts | 9° |
| 2026-04-24 16:06 | 53.75670 | 10.03481 | 1382 ft | 191 kts | 10° |
| 2026-04-24 16:07 | 53.76940 | 10.04112 | 1391 ft | 190 kts | 10° |
| 2026-04-24 16:07 | 53.78212 | 10.04707 | 1433 ft | 190 kts | 9° |
| 2026-04-24 16:07 | 53.80865 | 10.05885 | 1509 ft | 205 kts | 9° |
| 2026-04-24 16:08 | 53.82278 | 10.06482 | 1506 ft | 209 kts | 9° |
| 2026-04-24 16:08 | 53.85126 | 10.07680 | 1503 ft | 215 kts | 9° |
| 2026-04-24 16:09 | 53.88051 | 10.08903 | 1503 ft | 217 kts | 9° |
| 2026-04-24 16:09 | 53.89514 | 10.09531 | 1499 ft | 216 kts | 9° |
| 2026-04-24 16:09 | 53.90472 | 10.09943 | 1498 ft | 213 kts | 9° |
| 2026-04-24 16:09 | 53.92363 | 10.10739 | 1486 ft | 207 kts | 9° |
| 2026-04-24 16:10 | 53.96548 | 10.12496 | 1475 ft | 206 kts | 9° |
| 2026-04-24 16:11 | 53.99328 | 10.13637 | 1472 ft | 205 kts | 8° |
| 2026-04-24 16:11 | 54.00718 | 10.14222 | 1469 ft | 205 kts | 9° |
| 2026-04-24 16:11 | 54.02116 | 10.14661 | 1463 ft | 205 kts | 4° |
| 2026-04-24 16:12 | 54.04942 | 10.15388 | 1474 ft | 205 kts | 4° |
| 2026-04-24 16:12 | 54.06344 | 10.15765 | 1492 ft | 205 kts | 4° |
| 2026-04-24 16:12 | 54.09173 | 10.16482 | 1504 ft | 206 kts | 4° |
| 2026-04-24 16:13 | 54.10593 | 10.16817 | 1499 ft | 207 kts | 4° |
| 2026-04-24 16:13 | 54.13452 | 10.17545 | 1492 ft | 207 kts | 4° |
| 2026-04-24 16:14 | 54.16293 | 10.18216 | 1496 ft | 206 kts | 4° |
| 2026-04-24 16:14 | 54.17713 | 10.18555 | 1498 ft | 206 kts | 4° |
| 2026-04-24 16:14 | 54.20545 | 10.19232 | 1499 ft | 205 kts | 4° |
| 2026-04-24 16:15 | 54.21023 | 10.19354 | 1500 ft | 205 kts | 4° |
| 2026-04-24 16:15 | 54.24317 | 10.20197 | 1504 ft | 207 kts | 4° |
| 2026-04-24 16:16 | 54.27147 | 10.20966 | 1503 ft | 204 kts | 4° |
| 2026-04-24 16:16 | 54.28504 | 10.21316 | 1498 ft | 189 kts | 4° |
| 2026-04-24 16:17 | 54.32294 | 10.22330 | 1141 ft | 177 kts | 1° |
| 2026-04-24 16:17 | 54.34729 | 10.22565 | 887 ft | 170 kts | 354° |
| 2026-04-24 16:18 | 54.36891 | 10.22401 | 1042 ft | 143 kts | 349° |
| 2026-04-24 16:18 | 54.38383 | 10.20898 | 991 ft | 132 kts | 283° |
| 2026-04-24 16:18 | 54.38328 | 10.19359 | 803 ft | 126 kts | 263° |
| 2026-04-24 16:19 | 54.38105 | 10.16523 | 291 ft | 115 kts | 265° |
| 2026-04-24 16:19 | 54.38000 | 10.15141 | 115 ft | 113 kts | 265° |
| 2026-04-24 16:20 | 54.37778 | 10.12617 | 279 ft | 128 kts | 261° |
| 2026-04-24 16:20 | 54.36800 | 10.09538 | 964 ft | 169 kts | 216° |
| 2026-04-24 16:20 | 54.35711 | 10.08775 | 1157 ft | 178 kts | 202° |
| 2026-04-24 16:21 | 54.33197 | 10.07579 | 1625 ft | 185 kts | 199° |
| 2026-04-24 16:21 | 54.31942 | 10.07166 | 1965 ft | 186 kts | 195° |
| 2026-04-24 16:21 | 54.30617 | 10.06736 | 1989 ft | 199 kts | 197° |
| 2026-04-24 16:22 | 54.29298 | 10.06057 | 1999 ft | 198 kts | 214° |
| 2026-04-24 16:22 | 54.27137 | 10.03257 | 1905 ft | 187 kts | 223° |
| 2026-04-24 16:22 | 54.26148 | 10.01890 | 1963 ft | 179 kts | 223° |
| 2026-04-24 16:23 | 54.25184 | 10.00547 | 1967 ft | 179 kts | 224° |
| 2026-04-24 16:23 | 54.24221 | 9.99204 | 1973 ft | 178 kts | 224° |
| 2026-04-24 16:23 | 54.23265 | 9.97891 | 1972 ft | 175 kts | 224° |
| 2026-04-24 16:24 | 54.21351 | 9.95275 | 1992 ft | 178 kts | 224° |
| 2026-04-24 16:24 | 54.20378 | 9.93940 | 1995 ft | 177 kts | 224° |
| 2026-04-24 16:24 | 54.19424 | 9.92669 | 1993 ft | 176 kts | 224° |
| 2026-04-24 16:24 | 54.18457 | 9.91387 | 1991 ft | 176 kts | 223° |
| 2026-04-24 16:25 | 54.17489 | 9.90080 | 1993 ft | 176 kts | 224° |
| 2026-04-24 16:25 | 54.16540 | 9.88788 | 1989 ft | 177 kts | 224° |
| 2026-04-24 16:25 | 54.15579 | 9.87483 | 1980 ft | 176 kts | 224° |
| 2026-04-24 16:26 | 54.14196 | 9.84217 | 2011 ft | 172 kts | 246° |
| 2026-04-24 16:26 | 54.13598 | 9.82462 | 2009 ft | 175 kts | 243° |
| 2026-04-24 16:26 | 54.12231 | 9.78928 | 2009 ft | 178 kts | 242° |
| 2026-04-24 16:27 | 54.11366 | 9.77441 | 2004 ft | 186 kts | 207° |
| 2026-04-24 16:27 | 54.10052 | 9.77513 | 1997 ft | 201 kts | 156° |
| 2026-04-24 16:27 | 54.09151 | 9.79258 | 2004 ft | 201 kts | 104° |
| 2026-04-24 16:27 | 54.09230 | 9.81539 | 2006 ft | 193 kts | 67° |
| 2026-04-24 16:28 | 54.09683 | 9.83684 | 2014 ft | 193 kts | 64° |
| 2026-04-24 16:28 | 54.10157 | 9.85828 | 2008 ft | 193 kts | 64° |
| 2026-04-24 16:28 | 54.11127 | 9.90090 | 2006 ft | 192 kts | 64° |
| 2026-04-24 16:29 | 54.11615 | 9.92215 | 2006 ft | 193 kts | 64° |
| 2026-04-24 16:29 | 54.12101 | 9.94337 | 2006 ft | 193 kts | 64° |
| 2026-04-24 16:29 | 54.13081 | 9.98607 | 1999 ft | 194 kts | 64° |
| 2026-04-24 16:30 | 54.13338 | 10.03140 | 1989 ft | 199 kts | 94° |
| 2026-04-24 16:30 | 54.13185 | 10.05502 | 1992 ft | 201 kts | 94° |
| 2026-04-24 16:30 | 54.13027 | 10.07864 | 1996 ft | 200 kts | 94° |
| 2026-04-24 16:31 | 54.12864 | 10.10229 | 1993 ft | 202 kts | 95° |
| 2026-04-24 16:31 | 54.12708 | 10.12609 | 1990 ft | 202 kts | 94° |
| 2026-04-24 16:31 | 54.12453 | 10.14950 | 1975 ft | 202 kts | 118° |
| 2026-04-24 16:31 | 54.11427 | 10.16448 | 2077 ft | 195 kts | 160° |
| 2026-04-24 16:32 | 54.10587 | 10.17012 | 2189 ft | 197 kts | 163° |
| 2026-04-24 16:32 | 54.08858 | 10.18052 | 2404 ft | 198 kts | 163° |
| 2026-04-24 16:32 | 54.07553 | 10.18822 | 2554 ft | 199 kts | 163° |
| 2026-04-24 16:32 | 54.06237 | 10.19575 | 2705 ft | 200 kts | 163° |
| 2026-04-24 16:33 | 54.04900 | 10.20316 | 2856 ft | 203 kts | 164° |
| 2026-04-24 16:33 | 54.03540 | 10.21068 | 2931 ft | 205 kts | 164° |
| 2026-04-24 16:33 | 54.02194 | 10.21818 | 2948 ft | 202 kts | 164° |
| 2026-04-24 16:33 | 54.00869 | 10.22567 | 2968 ft | 199 kts | 164° |
| 2026-04-24 16:34 | 53.99560 | 10.23322 | 2985 ft | 199 kts | 164° |
| 2026-04-24 16:34 | 53.98250 | 10.24085 | 2988 ft | 200 kts | 164° |
| 2026-04-24 16:34 | 53.96926 | 10.24859 | 2987 ft | 203 kts | 164° |
| 2026-04-24 16:34 | 53.95584 | 10.25633 | 2980 ft | 206 kts | 164° |
| 2026-04-24 16:35 | 53.94238 | 10.26413 | 2970 ft | 202 kts | 163° |
| 2026-04-24 16:35 | 53.92908 | 10.27170 | 2974 ft | 201 kts | 164° |
| 2026-04-24 16:35 | 53.91578 | 10.27919 | 2975 ft | 201 kts | 164° |
| 2026-04-24 16:35 | 53.90253 | 10.28684 | 2984 ft | 202 kts | 163° |
| 2026-04-24 16:36 | 53.88918 | 10.29445 | 2981 ft | 203 kts | 164° |
| 2026-04-24 16:36 | 53.87587 | 10.30201 | 2981 ft | 201 kts | 164° |
| 2026-04-24 16:36 | 53.86240 | 10.30973 | 2981 ft | 201 kts | 164° |
| 2026-04-24 16:36 | 53.84911 | 10.31725 | 2977 ft | 201 kts | 163° |
| 2026-04-24 16:37 | 53.83599 | 10.32453 | 2976 ft | 200 kts | 164° |
| 2026-04-24 16:37 | 53.82279 | 10.33187 | 2975 ft | 199 kts | 164° |
| 2026-04-24 16:37 | 53.81383 | 10.33583 | 2963 ft | 194 kts | 181° |
| 2026-04-24 16:37 | 53.79686 | 10.32886 | 2976 ft | 190 kts | 204° |
| 2026-04-24 16:38 | 53.78415 | 10.32181 | 2983 ft | 194 kts | 204° |
| 2026-04-24 16:38 | 53.77209 | 10.31245 | 2990 ft | 185 kts | 230° |
| 2026-04-24 16:38 | 53.76390 | 10.29636 | 2997 ft | 179 kts | 238° |
| 2026-04-24 16:38 | 53.75631 | 10.27994 | 3000 ft | 176 kts | 239° |
| 2026-04-24 16:39 | 53.74877 | 10.26386 | 2997 ft | 174 kts | 239° |
| 2026-04-24 16:39 | 53.74166 | 10.24751 | 2994 ft | 170 kts | 245° |
| 2026-04-24 16:39 | 53.73603 | 10.23015 | 2989 ft | 167 kts | 252° |
| 2026-04-24 16:39 | 53.73120 | 10.21238 | 2987 ft | 166 kts | 253° |
| 2026-04-24 16:40 | 53.72658 | 10.19462 | 2986 ft | 164 kts | 253° |
| 2026-04-24 16:40 | 53.72193 | 10.17705 | 2825 ft | 169 kts | 250° |
| 2026-04-24 16:40 | 53.71522 | 10.16122 | 2569 ft | 162 kts | 238° |
| 2026-04-24 16:40 | 53.70838 | 10.14680 | 2368 ft | 153 kts | 239° |
| 2026-04-24 16:41 | 53.70164 | 10.13298 | 2156 ft | 152 kts | 238° |
| 2026-04-24 16:41 | 53.69492 | 10.11935 | 1947 ft | 150 kts | 238° |
| 2026-04-24 16:41 | 53.68826 | 10.10584 | 1741 ft | 150 kts | 239° |
| 2026-04-24 16:41 | 53.68164 | 10.09230 | 1527 ft | 148 kts | 238° |
| 2026-04-24 16:42 | 53.67508 | 10.07907 | 1366 ft | 145 kts | 237° |
| 2026-04-24 16:42 | 53.66869 | 10.06616 | 1194 ft | 142 kts | 237° |
| 2026-04-24 16:42 | 53.66240 | 10.05356 | 1016 ft | 138 kts | 238° |
| 2026-04-24 16:42 | 53.65648 | 10.04119 | 802 ft | 133 kts | 238° |
| 2026-04-24 16:43 | 53.65059 | 10.02931 | 587 ft | 131 kts | 237° |
| 2026-04-24 16:43 | 53.64492 | 10.01787 | 405 ft | 128 kts | 239° |
| 2026-04-24 16:43 | 53.63927 | 10.00629 | 192 ft | 124 kts | 239° |
| 2026-04-24 16:43 | 53.63387 | 9.99550 | 54 ft | 115 kts | 239° |
| 2026-04-24 16:44 | 53.62924 | 9.98581 | 40 ft | 100 kts | 226° |
| 2026-04-24 16:44 | 53.62397 | 9.97520 | 96 ft | 135 kts | 239° |
| 2026-04-24 16:44 | 53.61755 | 9.96131 | 318 ft | 162 kts | 235° |
| 2026-04-24 16:44 | 53.60978 | 9.94616 | 733 ft | 171 kts | 233° |
| 2026-04-24 16:45 | 53.60191 | 9.93111 | 1189 ft | 172 kts | 235° |
| 2026-04-24 16:45 | 53.59379 | 9.91613 | 1636 ft | 174 kts | 234° |
| 2026-04-24 16:45 | 53.58554 | 9.90103 | 2103 ft | 177 kts | 234° |
| 2026-04-24 16:45 | 53.57709 | 9.88557 | 2537 ft | 181 kts | 234° |
| 2026-04-24 16:46 | 53.56737 | 9.87188 | 2968 ft | 192 kts | 205° |
| 2026-04-24 16:46 | 53.55371 | 9.87297 | 3242 ft | 205 kts | 154° |
| 2026-04-24 16:46 | 53.54471 | 9.89048 | 3510 ft | 201 kts | 102° |
| 2026-04-24 16:46 | 53.54561 | 9.91266 | 3769 ft | 188 kts | 66° |
| 2026-04-24 16:47 | 53.54987 | 9.93345 | 3954 ft | 191 kts | 64° |
| 2026-04-24 16:47 | 53.55290 | 9.94763 | 3997 ft | 197 kts | 64° |
| 2026-04-24 16:47 | 53.55761 | 9.96964 | 4003 ft | 203 kts | 64° |
| 2026-04-24 16:47 | 53.56256 | 9.99222 | 4013 ft | 207 kts | 64° |
| 2026-04-24 16:48 | 53.56766 | 10.01513 | 4012 ft | 210 kts | 64° |
| 2026-04-24 16:48 | 53.57276 | 10.03819 | 4009 ft | 209 kts | 64° |
| 2026-04-24 16:48 | 53.57781 | 10.06117 | 4008 ft | 210 kts | 64° |
| 2026-04-24 16:48 | 53.58292 | 10.08418 | 4011 ft | 210 kts | 62° |
| 2026-04-24 16:49 | 53.58873 | 10.10657 | 4010 ft | 209 kts | 59° |
| 2026-04-24 16:49 | 53.59484 | 10.12887 | 4010 ft | 210 kts | 59° |
| 2026-04-24 16:49 | 53.60101 | 10.15107 | 4010 ft | 209 kts | 59° |
| 2026-04-24 16:49 | 53.60720 | 10.17323 | 4009 ft | 210 kts | 59° |
| 2026-04-24 16:50 | 53.61139 | 10.18829 | 4010 ft | 210 kts | 58° |
| 2026-04-24 16:50 | 53.61952 | 10.21790 | 4008 ft | 210 kts | 59° |
| 2026-04-24 16:50 | 53.62563 | 10.24014 | 4007 ft | 210 kts | 59° |
| 2026-04-24 16:50 | 53.63180 | 10.26243 | 4005 ft | 210 kts | 59° |
| 2026-04-24 16:51 | 53.63792 | 10.28477 | 4004 ft | 210 kts | 59° |
| 2026-04-24 16:51 | 53.64415 | 10.30688 | 4000 ft | 205 kts | 52° |
| 2026-04-24 16:51 | 53.65452 | 10.32155 | 3939 ft | 193 kts | 15° |
| 2026-04-24 16:51 | 53.66748 | 10.32659 | 3687 ft | 192 kts | 5° |
| 2026-04-24 16:52 | 53.68071 | 10.33016 | 3451 ft | 192 kts | 4° |
| 2026-04-24 16:52 | 53.69387 | 10.33355 | 3196 ft | 191 kts | 4° |
| 2026-04-24 16:52 | 53.70697 | 10.33695 | 3046 ft | 191 kts | 4° |
| 2026-04-24 16:52 | 53.72013 | 10.34027 | 3003 ft | 191 kts | 4° |
| 2026-04-24 16:53 | 53.73315 | 10.34366 | 2981 ft | 185 kts | 2° |
| 2026-04-24 16:53 | 53.74480 | 10.33907 | 2982 ft | 171 kts | 328° |
| 2026-04-24 16:53 | 53.75412 | 10.32690 | 2976 ft | 171 kts | 306° |
| 2026-04-24 16:53 | 53.75609 | 10.30695 | 2999 ft | 183 kts | 268° |
| 2026-04-24 16:54 | 53.75394 | 10.28519 | 3001 ft | 191 kts | 265° |
| 2026-04-24 16:54 | 53.75137 | 10.26301 | 3000 ft | 193 kts | 264° |
| 2026-04-24 16:54 | 53.74874 | 10.24086 | 3002 ft | 191 kts | 262° |
| 2026-04-24 16:54 | 53.74350 | 10.22003 | 2999 ft | 196 kts | 245° |
| 2026-04-24 16:55 | 53.73531 | 10.20156 | 3001 ft | 198 kts | 237° |
| 2026-04-24 16:55 | 53.72651 | 10.18358 | 2901 ft | 200 kts | 236° |
| 2026-04-24 16:55 | 53.71757 | 10.16543 | 2638 ft | 202 kts | 236° |
| 2026-04-24 16:55 | 53.70861 | 10.14725 | 2367 ft | 201 kts | 236° |
| 2026-04-24 16:56 | 53.69968 | 10.12930 | 2094 ft | 199 kts | 236° |
| 2026-04-24 16:56 | 53.69088 | 10.11118 | 1815 ft | 197 kts | 237° |
| 2026-04-24 16:56 | 53.68220 | 10.09330 | 1537 ft | 195 kts | 236° |
| 2026-04-24 16:56 | 53.67370 | 10.07616 | 1309 ft | 179 kts | 236° |
| 2026-04-24 16:57 | 53.66668 | 10.06211 | 1059 ft | 141 kts | 238° |
| 2026-04-24 16:57 | 53.66076 | 10.04985 | 862 ft | 131 kts | 237° |
| 2026-04-24 16:57 | 53.65505 | 10.03834 | 678 ft | 125 kts | 238° |
| 2026-04-24 16:57 | 53.64964 | 10.02734 | 541 ft | 120 kts | 238° |
| 2026-04-24 16:58 | 53.64430 | 10.01657 | 377 ft | 119 kts | 238° |
| 2026-04-24 16:58 | 53.63906 | 10.00587 | 185 ft | 118 kts | 240° |
| 2026-04-24 16:58 | 53.63392 | 9.99564 | 48 ft | 106 kts | 240° |
| 2026-04-24 16:58 | 53.62964 | 9.98679 | 41 ft | 103 kts | 232° |
| 2026-04-24 16:59 | 53.62403 | 9.97555 | 112 ft | 143 kts | 230° |
| 2026-04-24 16:59 | 53.61638 | 9.96314 | 512 ft | 160 kts | 220° |
| 2026-04-24 16:59 | 53.59394 | 9.95727 | 1114 ft | 183 kts | 167° |
| 2026-04-24 17:00 | 53.58332 | 9.96983 | 1102 ft | 196 kts | 130° |
| 2026-04-24 17:00 | 53.58299 | 10.01294 | 997 ft | 191 kts | 47° |
| 2026-04-24 17:00 | 53.59211 | 10.02792 | 1026 ft | 181 kts | 36° |
| 2026-04-24 17:01 | 53.61171 | 10.05052 | 1068 ft | 154 kts | 11° |
| 2026-04-24 17:01 | 53.62147 | 10.05422 | 1105 ft | 136 kts | 0° |
| 2026-04-24 17:02 | 53.63833 | 10.04866 | 1065 ft | 114 kts | 328° |
| 2026-04-24 17:02 | 53.64358 | 10.03991 | 1015 ft | 108 kts | 300° |
| 2026-04-24 17:02 | 53.64494 | 10.02746 | 845 ft | 115 kts | 268° |
| 2026-04-24 17:02 | 53.64269 | 10.01441 | 533 ft | 115 kts | 241° |
| 2026-04-24 17:03 | 53.63266 | 9.99302 | 43 ft | 104 kts | 232° |
| 2026-04-24 17:03 | 53.62946 | 9.98640 | 40 ft | 33 kts | 228° |
| 2026-04-24 17:03 | 53.62764 | 9.98471 | 40 ft | 15 kts | 179° |
| 2026-04-24 17:04 | 53.62694 | 9.98534 | 42 ft | 12 kts | 95° |
| 2026-04-24 17:04 | 53.62770 | 9.98716 | 42 ft | 7 kts | 49° |
| 2026-04-24 17:04 | 53.62792 | 9.98788 | 42 ft | 7 kts | 126° |
| 2026-04-24 17:05 | 53.62719 | 9.98862 | 42 ft | 18 kts | 154° |
| 2026-04-24 17:05 | 53.62640 | 9.98915 | 42 ft | 4 kts | 226° |
| 2026-04-24 17:05 | 53.62631 | 9.98894 | 42 ft | 0 kts | 246° |